createdAt,value
2019-04-27T00:04:52.836Z,80.70
2019-04-27T00:10:03.334Z,80.60
2019-04-27T00:15:13.189Z,80.20
2019-04-27T00:20:23.985Z,80.40
2019-04-27T00:25:32.829Z,80.00
2019-04-27T00:30:41.424Z,79.80
2019-04-27T00:35:51.177Z,79.30
2019-04-27T00:41:00.869Z,79.70
2019-04-27T00:46:10.372Z,79.60
2019-04-27T00:51:18.426Z,79.40
2019-04-27T00:56:28.433Z,80.00
2019-04-27T01:01:38.149Z,78.80
2019-04-27T01:06:46.550Z,78.10
2019-04-27T01:11:55.616Z,78.00
2019-04-27T01:17:03.382Z,77.40
2019-04-27T01:22:11.221Z,77.10
2019-04-27T01:27:20.728Z,75.80
2019-04-27T01:32:30.018Z,76.00
2019-04-27T01:37:38.768Z,75.50
2019-04-27T01:42:48.396Z,75.20
2019-04-27T01:47:56.956Z,75.20
2019-04-27T01:53:05.519Z,75.20
2019-04-27T01:58:14.377Z,74.80
2019-04-27T02:03:24.327Z,73.70
2019-04-27T02:08:33.278Z,73.40
2019-04-27T02:13:41.643Z,74.10
2019-04-27T02:18:50.277Z,73.80
2019-04-27T02:23:59.839Z,73.80
2019-04-27T02:29:09.337Z,73.60
2019-04-27T02:34:20.271Z,73.30
2019-04-27T02:39:29.756Z,73.80
2019-04-27T02:44:40.503Z,73.50
2019-04-27T02:49:50.702Z,72.90
2019-04-27T02:54:59.355Z,73.30
2019-04-27T03:00:10.496Z,73.50
2019-04-27T03:05:20.509Z,72.70
2019-04-27T03:10:29.737Z,72.50
2019-04-27T03:15:40.301Z,72.20
2019-04-27T03:20:50.337Z,72.40
2019-04-27T03:26:00.321Z,72.00
2019-04-27T03:31:12.686Z,73.40
2019-04-27T03:36:21.201Z,71.60
2019-04-27T03:41:29.199Z,72.60
2019-04-27T03:46:39.742Z,71.10
2019-04-27T03:51:49.902Z,71.70
2019-04-27T03:57:02.406Z,70.40
2019-04-27T04:02:10.140Z,69.20
2019-04-27T04:07:19.713Z,68.60
2019-04-27T04:12:30.244Z,68.70
2019-04-27T04:17:40.254Z,69.70
2019-04-27T04:22:51.228Z,68.40
2019-04-27T04:28:00.587Z,69.10
2019-04-27T04:33:10.184Z,66.70
2019-04-27T04:38:20.596Z,67.10
2019-04-27T04:43:30.209Z,66.50
2019-04-27T04:48:40.327Z,65.80
2019-04-27T04:53:48.893Z,65.10
2019-04-27T04:59:00.016Z,65.20
2019-04-27T05:04:29.058Z,65.70
2019-04-27T05:09:37.138Z,65.60
2019-04-27T05:14:45.670Z,65.10
2019-04-27T05:19:55.194Z,65.50
2019-04-27T05:25:03.594Z,64.70
2019-04-27T05:30:12.297Z,65.10
2019-04-27T05:35:20.252Z,63.60
2019-04-27T05:40:29.140Z,64.10
2019-04-27T05:45:39.647Z,62.20
2019-04-27T05:50:51.445Z,61.30
2019-04-27T05:55:59.340Z,61.60
2019-04-27T06:01:11.257Z,61.50
2019-04-27T06:06:19.931Z,60.40
2019-04-27T06:11:28.734Z,59.50
2019-04-27T06:16:36.870Z,59.90
2019-04-27T06:22:05.095Z,59.20
2019-04-27T06:27:13.828Z,58.10
2019-04-27T06:32:22.300Z,58.70
2019-04-27T06:37:31.087Z,58.00
2019-04-27T06:42:40.161Z,57.10
2019-04-27T06:47:51.050Z,56.70
2019-04-27T06:53:00.115Z,57.00
2019-04-27T06:58:09.001Z,58.00
2019-04-27T07:03:18.819Z,58.50
2019-04-27T07:08:28.639Z,57.10
2019-04-27T07:13:38.992Z,58.00
2019-04-27T07:18:47.275Z,58.30
2019-04-27T07:23:59.077Z,58.70
2019-04-27T07:29:09.587Z,57.50
2019-04-27T07:40:03.542Z,57.30
2019-04-27T07:45:12.032Z,57.00
2019-04-27T07:50:20.526Z,57.00
2019-04-27T07:55:29.150Z,56.90
2019-04-27T08:00:37.391Z,57.20
2019-04-27T08:05:45.699Z,57.60
2019-04-27T08:10:53.723Z,58.20
2019-04-27T08:16:02.200Z,56.60
2019-04-27T08:21:10.520Z,56.70
2019-04-27T08:26:19.956Z,57.10
2019-04-27T08:31:29.692Z,57.40
2019-04-27T08:36:39.019Z,56.80
2019-04-27T08:41:46.934Z,56.50
2019-04-27T08:46:56.579Z,56.30
2019-04-27T08:52:04.816Z,56.50
2019-04-27T08:57:13.146Z,56.90
2019-04-27T09:02:21.819Z,56.70
2019-04-27T09:07:31.833Z,55.70
2019-04-27T09:12:42.625Z,55.20
2019-04-27T09:17:52.138Z,55.40
2019-04-27T09:23:00.655Z,55.80
2019-04-27T09:28:08.898Z,56.10
2019-04-27T09:33:17.505Z,56.20
2019-04-27T09:38:26.462Z,56.70
2019-04-27T09:43:36.621Z,57.40
2019-04-27T09:48:46.484Z,57.70
2019-04-27T09:53:56.256Z,57.40
2019-04-27T09:59:06.335Z,57.30
2019-04-27T10:04:15.695Z,56.60
2019-04-27T10:09:22.828Z,57.00
2019-04-27T10:14:31.690Z,57.00
2019-04-27T10:19:40.408Z,56.90
2019-04-27T10:24:48.511Z,56.70
2019-04-27T10:29:56.972Z,56.70
2019-04-27T10:35:07.671Z,56.80
2019-04-27T10:40:16.193Z,56.40
2019-04-27T10:45:24.521Z,56.40
2019-04-27T10:50:33.089Z,56.70
2019-04-27T10:55:41.469Z,57.10
2019-04-27T11:00:50.630Z,57.00
2019-04-27T11:06:00.052Z,57.60
2019-04-27T11:11:08.104Z,57.80
2019-04-27T11:16:15.993Z,57.80
2019-04-27T11:21:26.087Z,57.90
2019-04-27T11:26:33.790Z,57.60
2019-04-27T11:31:42.747Z,57.80
2019-04-27T11:36:55.162Z,58.10
2019-04-27T11:42:03.710Z,58.70
2019-04-27T11:47:12.462Z,59.00
2019-04-27T11:52:21.055Z,59.30
2019-04-27T11:57:29.704Z,59.30
2019-04-27T12:02:37.740Z,58.10
2019-04-27T12:07:47.745Z,58.50
2019-04-27T12:12:56.296Z,58.90
2019-04-27T12:18:08.820Z,59.30
2019-04-27T12:23:16.363Z,59.60
2019-04-27T12:28:25.560Z,59.70
2019-04-27T12:33:33.337Z,59.80
2019-04-27T12:38:41.654Z,59.70
2019-04-27T12:43:49.561Z,58.80
2019-04-27T12:48:57.997Z,58.40
2019-04-27T12:54:07.556Z,58.10
2019-04-27T12:59:16.843Z,58.10
2019-04-27T13:04:25.234Z,58.10
2019-04-27T13:09:33.625Z,58.10
2019-04-27T13:14:41.702Z,58.00
2019-04-27T13:19:49.917Z,58.10
2019-04-27T13:24:58.223Z,58.10
2019-04-27T13:30:07.475Z,58.10
2019-04-27T13:35:16.045Z,58.10
2019-04-27T13:40:25.917Z,58.50
2019-04-27T13:45:36.248Z,58.60
2019-04-27T13:50:47.117Z,58.40
2019-04-27T13:55:56.769Z,58.30
2019-04-27T14:01:05.694Z,58.30
2019-04-27T14:06:14.080Z,58.50
2019-04-27T14:11:23.065Z,58.30
2019-04-27T14:16:31.351Z,58.10
2019-04-27T14:21:40.569Z,58.00
2019-04-27T14:26:48.884Z,57.90
2019-04-27T14:31:58.685Z,58.20
2019-04-27T14:37:08.546Z,59.20
2019-04-27T14:42:16.723Z,59.70
2019-04-27T14:47:25.444Z,60.00
2019-04-27T14:52:34.096Z,60.10
2019-04-27T14:57:42.588Z,59.80
2019-04-27T15:02:51.031Z,59.90
2019-04-27T15:08:01.687Z,60.40
2019-04-27T15:13:08.620Z,60.60
2019-04-27T15:18:17.225Z,60.70
2019-04-27T15:23:26.590Z,61.10
2019-04-27T15:28:35.522Z,61.00
2019-04-27T15:33:46.748Z,61.30
2019-04-27T15:38:55.517Z,61.20
2019-04-27T15:44:06.945Z,61.50
2019-04-27T15:49:13.075Z,61.70
2019-04-27T15:54:22.352Z,62.20
2019-04-27T15:59:37.220Z,62.20
2019-04-27T16:04:40.103Z,62.60
2019-04-27T16:09:49.047Z,63.20
2019-04-27T16:14:58.218Z,63.40
2019-04-27T16:20:10.197Z,63.60
2019-04-27T16:25:18.651Z,64.40
2019-04-27T16:30:28.651Z,65.10
2019-04-27T16:35:38.540Z,65.60
2019-04-27T16:40:46.135Z,65.20
2019-04-27T16:45:57.962Z,65.50
2019-04-27T16:51:03.550Z,66.30
2019-04-27T16:56:15.185Z,66.20
2019-04-27T17:01:23.191Z,66.50
2019-04-27T17:06:31.299Z,66.90
2019-04-27T17:11:43.659Z,66.90
2019-04-27T17:16:50.477Z,67.60
2019-04-27T17:21:59.900Z,68.40
2019-04-27T17:27:11.654Z,68.50
2019-04-27T17:32:19.875Z,69.00
2019-04-27T17:37:32.225Z,69.80
2019-04-27T17:42:37.603Z,69.10
2019-04-27T17:47:45.954Z,69.50
2019-04-27T17:52:56.837Z,70.10
2019-04-27T17:58:05.281Z,70.80
2019-04-27T18:03:17.551Z,70.60
2019-04-27T18:08:25.202Z,70.30
2019-04-27T18:13:32.494Z,70.20
2019-04-27T18:18:42.019Z,70.50
2019-04-27T18:23:55.148Z,70.80
2019-04-27T18:29:02.096Z,71.00
2019-04-27T18:34:14.970Z,71.10
2019-04-27T18:39:19.329Z,71.40
2019-04-27T18:44:30.517Z,71.60
2019-04-27T18:49:39.818Z,71.60
2019-04-27T18:54:48.070Z,71.90
2019-04-27T18:59:58.202Z,72.20
2019-04-27T19:05:08.746Z,72.50
2019-04-27T19:10:16.262Z,72.90
2019-04-27T19:15:24.610Z,73.20
2019-04-27T19:20:32.953Z,73.10
2019-04-27T19:25:42.905Z,73.50
2019-04-27T19:30:52.394Z,73.60
2019-04-27T19:36:05.942Z,73.80
2019-04-27T19:41:14.266Z,73.80
2019-04-27T19:46:22.104Z,74.00
2019-04-27T19:51:30.690Z,74.00
2019-04-27T19:56:39.049Z,73.90
2019-04-27T20:01:48.610Z,74.20
2019-04-27T20:06:57.275Z,74.10
2019-04-27T20:12:09.756Z,73.90
2019-04-27T20:17:15.653Z,73.30
2019-04-27T20:22:24.431Z,73.00
2019-04-27T20:27:44.943Z,73.10
2019-04-27T20:32:42.226Z,72.90
2019-04-27T20:37:51.857Z,72.90
2019-04-27T20:43:01.544Z,73.00
2019-04-27T20:48:11.095Z,73.40
2019-04-27T20:53:20.876Z,73.20
2019-04-27T20:58:31.010Z,73.10
2019-04-27T21:03:41.105Z,73.40
2019-04-27T21:08:51.351Z,73.90
2019-04-27T21:14:01.013Z,74.10
2019-04-27T21:19:10.953Z,74.60
2019-04-27T21:24:20.751Z,75.00
2019-04-27T21:29:28.496Z,75.40
2019-04-27T21:34:36.970Z,75.40
2019-04-27T21:39:45.086Z,75.50
2019-04-27T21:44:53.672Z,75.50
2019-04-27T21:50:01.816Z,75.60
2019-04-27T21:55:13.084Z,76.20
2019-04-27T22:00:23.985Z,76.60
2019-04-27T22:05:33.549Z,77.00
2019-04-27T22:10:41.667Z,77.10
2019-04-27T22:15:49.734Z,77.30
2019-04-27T22:20:58.271Z,77.60
2019-04-27T22:26:07.257Z,77.80
2019-04-27T22:31:15.589Z,78.00
2019-04-27T22:36:24.135Z,78.30
2019-04-27T22:41:32.388Z,78.60
2019-04-27T22:46:41.471Z,78.60
2019-04-27T22:51:51.159Z,79.20
2019-04-27T22:57:01.084Z,79.60
2019-04-27T23:02:11.778Z,80.10
2019-04-27T23:07:21.271Z,80.20
2019-04-27T23:12:31.543Z,80.50
2019-04-27T23:17:42.642Z,80.80
2019-04-27T23:22:50.274Z,80.90
2019-04-27T23:27:58.574Z,81.10
2019-04-27T23:33:06.794Z,81.00
2019-04-27T23:38:18.089Z,81.20
2019-04-27T23:43:26.234Z,81.70
2019-04-27T23:48:34.844Z,81.30
2019-04-27T23:53:42.912Z,81.10
2019-04-27T23:58:51.147Z,81.10
